createdAt,value
2018-05-08T00:02:27.681Z,61.49
2018-05-08T00:04:56.670Z,61.08
2018-05-08T00:07:24.931Z,61.13
2018-05-08T00:09:53.159Z,61.19
2018-05-08T00:12:22.263Z,60.87
2018-05-08T00:14:51.267Z,61.37
2018-05-08T00:17:20.284Z,62.29
2018-05-08T00:19:49.284Z,62.50
2018-05-08T00:22:18.294Z,62.55
2018-05-08T00:24:47.295Z,63.01
2018-05-08T00:27:16.404Z,63.55
2018-05-08T00:29:45.412Z,63.27
2018-05-08T00:32:14.434Z,62.96
2018-05-08T00:34:42.671Z,63.63
2018-05-08T00:37:10.995Z,63.41
2018-05-08T00:39:39.995Z,62.79
2018-05-08T00:42:08.287Z,63.12
2018-05-08T00:44:37.404Z,63.15
2018-05-08T00:47:06.407Z,63.67
2018-05-08T00:49:35.477Z,63.96
2018-05-08T00:52:03.707Z,64.65
2018-05-08T00:54:50.447Z,65.19
2018-05-08T00:57:18.742Z,64.74
2018-05-08T00:59:46.989Z,64.43
2018-05-08T01:02:15.226Z,64.52
2018-05-08T01:04:43.479Z,64.61
2018-05-08T01:07:12.483Z,64.84
2018-05-08T01:09:41.522Z,64.43
2018-05-08T01:12:09.762Z,64.30
2018-05-08T01:14:38.011Z,64.43
2018-05-08T01:17:06.291Z,65.62
2018-05-08T01:19:34.514Z,66.18
2018-05-08T01:22:02.742Z,66.57
2018-05-08T01:24:31.002Z,67.12
2018-05-08T01:26:59.243Z,67.75
2018-05-08T01:29:27.502Z,68.07
2018-05-08T01:31:56.608Z,67.78
2018-05-08T01:34:25.727Z,67.82
2018-05-08T01:36:54.734Z,67.85
2018-05-08T01:39:24.493Z,67.57
2018-05-08T01:41:52.723Z,67.45
2018-05-08T01:44:21.743Z,67.42
2018-05-08T01:46:50.756Z,67.17
2018-05-08T01:49:19.783Z,67.37
2018-05-08T01:51:48.047Z,67.10
2018-05-08T01:54:17.062Z,67.29
2018-05-08T01:56:45.297Z,66.93
2018-05-08T01:59:13.557Z,67.48
2018-05-08T02:01:41.821Z,67.39
2018-05-08T02:04:10.839Z,67.31
2018-05-08T02:06:39.083Z,67.33
2018-05-08T02:09:07.410Z,68.00
2018-05-08T02:11:36.549Z,68.50
2018-05-08T02:14:04.800Z,69.18
2018-05-08T02:16:33.913Z,69.23
2018-05-08T02:19:03.023Z,69.03
2018-05-08T02:21:32.131Z,68.70
2018-05-08T02:24:01.147Z,68.62
2018-05-08T02:26:30.144Z,69.67
2018-05-08T02:28:59.970Z,70.04
2018-05-08T02:31:28.991Z,70.42
2018-05-08T02:33:58.007Z,69.92
2018-05-08T02:36:26.243Z,69.23
2018-05-08T02:38:54.518Z,70.61
2018-05-08T02:41:22.853Z,70.65
2018-05-08T02:43:51.213Z,70.62
2018-05-08T02:46:19.453Z,71.02
2018-05-08T02:48:47.827Z,71.07
2018-05-08T02:51:16.939Z,71.03
2018-05-08T02:53:45.955Z,71.21
2018-05-08T02:56:14.191Z,71.23
2018-05-08T02:58:42.623Z,70.93
2018-05-08T03:01:11.721Z,71.11
2018-05-08T03:03:40.741Z,70.72
2018-05-08T03:06:09.834Z,70.02
2018-05-08T03:08:38.831Z,71.07
2018-05-08T03:11:08.588Z,71.71
2018-05-08T03:13:36.851Z,71.08
2018-05-08T03:16:05.967Z,71.09
2018-05-08T03:18:34.980Z,70.99
2018-05-08T03:21:04.080Z,70.66
2018-05-08T03:23:33.088Z,71.82
2018-05-08T03:26:02.115Z,72.20
2018-05-08T03:28:30.356Z,72.49
2018-05-08T03:30:58.621Z,73.23
2018-05-08T03:33:26.854Z,73.83
2018-05-08T03:35:55.098Z,74.54
2018-05-08T03:38:23.326Z,74.06
2018-05-08T03:40:51.586Z,73.38
2018-05-08T03:43:19.811Z,73.37
2018-05-08T03:45:49.202Z,73.60
2018-05-08T03:48:18.819Z,73.49
2018-05-08T03:50:47.151Z,72.95
2018-05-08T03:53:16.247Z,72.66
2018-05-08T03:55:45.276Z,72.04
2018-05-08T03:58:13.535Z,72.11
2018-05-08T04:01:00.343Z,72.44
2018-05-08T04:03:46.450Z,72.52
2018-05-08T04:09:35.920Z,71.76
2018-05-08T04:12:04.193Z,72.83
2018-05-08T04:14:32.475Z,73.14
2018-05-08T04:17:01.491Z,72.70
2018-05-08T04:19:30.495Z,72.96
2018-05-08T04:21:59.492Z,73.46
2018-05-08T04:24:29.246Z,73.06
2018-05-08T04:26:57.475Z,73.19
2018-05-08T04:29:25.716Z,72.71
2018-05-08T04:31:54.726Z,72.44
2018-05-08T04:34:22.954Z,72.31
2018-05-08T04:36:51.190Z,71.57
2018-05-08T04:39:20.202Z,71.25
2018-05-08T04:41:49.236Z,70.58
2018-05-08T04:44:17.485Z,71.50
2018-05-08T04:46:47.115Z,71.39
2018-05-08T04:49:16.131Z,70.66
2018-05-08T04:51:44.377Z,70.66
2018-05-08T04:54:12.624Z,70.07
2018-05-08T04:56:40.883Z,70.67
2018-05-08T04:59:09.232Z,70.82
2018-05-08T05:01:37.467Z,71.08
2018-05-08T05:04:06.462Z,70.51
2018-05-08T05:06:35.494Z,69.84
2018-05-08T05:09:04.067Z,69.14
2018-05-08T05:11:33.695Z,69.18
2018-05-08T05:14:02.687Z,64.82
2018-05-08T05:16:31.704Z,60.74
2018-05-08T05:19:00.694Z,58.50
2018-05-08T05:21:29.713Z,58.14
2018-05-08T05:23:58.709Z,56.65
2018-05-08T05:26:27.736Z,55.27
2018-05-08T05:28:55.970Z,55.42
2018-05-08T05:31:24.227Z,54.38
2018-05-08T05:33:52.475Z,53.27
2018-05-08T05:36:21.363Z,52.46
2018-05-08T05:38:49.615Z,52.11
2018-05-08T05:41:17.900Z,49.95
2018-05-08T05:43:46.151Z,48.40
2018-05-08T05:46:14.395Z,48.24
2018-05-08T05:48:42.639Z,47.01
2018-05-08T05:51:12.023Z,47.16
2018-05-08T05:53:40.259Z,46.61
2018-05-08T05:56:08.507Z,45.97
2018-05-08T05:58:36.747Z,46.37
2018-05-08T06:01:05.011Z,45.03
2018-05-08T06:03:34.023Z,46.22
2018-05-08T06:06:03.035Z,44.71
2018-05-08T06:08:31.279Z,44.69
2018-05-08T06:11:00.294Z,46.19
2018-05-08T06:13:28.558Z,44.51
2018-05-08T06:15:56.812Z,43.87
2018-05-08T06:18:25.056Z,44.42
2018-05-08T06:20:54.081Z,44.85
2018-05-08T06:23:23.075Z,44.69
2018-05-08T06:25:51.318Z,43.25
2018-05-08T06:28:19.554Z,44.30
2018-05-08T06:30:47.826Z,44.29
2018-05-08T06:33:16.066Z,44.95
2018-05-08T06:35:44.304Z,43.01
2018-05-08T06:38:12.587Z,42.15
2018-05-08T06:40:40.818Z,41.86
2018-05-08T06:43:09.839Z,41.67
2018-05-08T06:45:38.083Z,42.09
2018-05-08T06:48:06.345Z,42.22
2018-05-08T06:50:34.591Z,41.00
2018-05-08T06:53:04.182Z,41.46
2018-05-08T06:55:32.428Z,39.77
2018-05-08T06:58:00.696Z,40.39
2018-05-08T07:00:28.932Z,40.21
2018-05-08T07:02:57.187Z,40.38
2018-05-08T07:05:25.419Z,39.68
2018-05-08T07:07:53.679Z,40.22
2018-05-08T07:10:21.919Z,39.03
2018-05-08T07:12:50.933Z,39.28
2018-05-08T07:15:19.989Z,38.65
2018-05-08T07:17:48.247Z,39.33
2018-05-08T07:20:16.486Z,38.09
2018-05-08T07:22:44.742Z,37.34
2018-05-08T07:25:12.975Z,37.60
2018-05-08T07:27:41.227Z,38.32
2018-05-08T07:30:09.496Z,36.45
2018-05-08T07:32:37.751Z,36.87
2018-05-08T07:35:06.759Z,36.79
2018-05-08T07:37:36.162Z,37.59
2018-05-08T07:40:04.411Z,37.09
2018-05-08T07:42:32.667Z,34.96
2018-05-08T07:45:02.246Z,36.08
2018-05-08T07:47:30.506Z,35.14
2018-05-08T07:49:58.749Z,34.87
2018-05-08T07:52:26.990Z,35.49
2018-05-08T07:54:55.219Z,35.54
2018-05-08T07:57:23.485Z,34.22
2018-05-08T07:59:51.746Z,34.17
2018-05-08T08:02:20.017Z,35.38
2018-05-08T08:04:48.262Z,34.79
2018-05-08T08:07:16.574Z,34.07
2018-05-08T08:09:45.652Z,33.90
2018-05-08T08:12:13.968Z,33.29
2018-05-08T08:14:42.145Z,32.52
2018-05-08T08:17:10.423Z,33.00
2018-05-08T08:19:38.671Z,32.12
2018-05-08T08:22:06.947Z,32.83
2018-05-08T08:24:35.209Z,32.18
2018-05-08T08:27:04.274Z,31.71
2018-05-08T08:29:32.615Z,31.48
2018-05-08T08:32:01.663Z,31.67
2018-05-08T08:34:29.911Z,32.20
2018-05-08T08:36:58.947Z,31.22
2018-05-08T08:39:27.198Z,31.62
2018-05-08T08:41:55.429Z,31.77
2018-05-08T08:44:23.699Z,31.46
2018-05-08T08:46:51.946Z,31.24
2018-05-08T08:49:20.209Z,31.20
2018-05-08T08:51:48.459Z,30.67
2018-05-08T08:54:16.727Z,31.71
2018-05-08T08:56:45.739Z,31.90
2018-05-08T08:59:14.754Z,31.42
2018-05-08T09:01:43.792Z,30.70
2018-05-08T09:04:12.056Z,30.03
2018-05-08T09:06:40.305Z,31.03
2018-05-08T09:09:08.559Z,30.72
2018-05-08T09:11:36.816Z,30.81
2018-05-08T09:14:05.870Z,31.01
2018-05-08T09:16:34.109Z,29.83
2018-05-08T09:19:03.218Z,30.14
2018-05-08T09:21:32.227Z,29.80
2018-05-08T09:24:01.251Z,29.35
2018-05-08T09:26:29.506Z,29.19
2018-05-08T09:28:58.640Z,28.01
2018-05-08T09:31:27.659Z,27.68
2018-05-08T09:33:56.047Z,28.13
2018-05-08T09:36:24.294Z,27.52
2018-05-08T09:38:52.571Z,27.16
2018-05-08T09:41:20.900Z,27.23
2018-05-08T09:43:50.017Z,26.71
2018-05-08T09:46:18.376Z,27.33
2018-05-08T09:48:46.966Z,27.29
2018-05-08T09:51:15.182Z,25.87
2018-05-08T09:53:44.295Z,25.75
2018-05-08T09:56:12.586Z,25.76
2018-05-08T09:58:40.850Z,26.18
2018-05-08T10:01:09.119Z,25.62
2018-05-08T10:03:37.374Z,25.60
2018-05-08T10:06:05.623Z,25.89
2018-05-08T10:08:33.891Z,25.29
2018-05-08T10:11:02.139Z,25.23
2018-05-08T10:13:30.408Z,24.68
2018-05-08T10:15:59.405Z,24.42
2018-05-08T10:18:28.425Z,24.71
2018-05-08T10:20:56.658Z,24.50
2018-05-08T10:23:24.918Z,24.35
2018-05-08T10:25:53.163Z,24.11
2018-05-08T10:28:22.302Z,24.11
2018-05-08T10:30:50.555Z,23.93
2018-05-08T10:33:19.594Z,23.97
2018-05-08T10:35:48.586Z,25.11
2018-05-08T10:38:17.633Z,25.51
2018-05-08T10:40:45.919Z,24.51
2018-05-08T10:43:14.184Z,25.03
2018-05-08T10:45:42.461Z,24.46
2018-05-08T10:48:11.507Z,24.50
2018-05-08T10:50:39.755Z,25.03
2018-05-08T10:53:08.771Z,23.67
2018-05-08T10:55:37.042Z,24.05
2018-05-08T10:58:05.307Z,23.95
2018-05-08T11:00:33.610Z,23.82
2018-05-08T11:03:01.846Z,24.18
2018-05-08T11:05:30.111Z,24.41
2018-05-08T11:07:59.139Z,24.92
2018-05-08T11:10:27.404Z,23.24
2018-05-08T11:12:56.444Z,23.28
2018-05-08T11:15:24.752Z,23.38
2018-05-08T11:17:52.996Z,22.87
2018-05-08T11:20:22.116Z,22.85
2018-05-08T11:22:50.371Z,23.28
2018-05-08T11:25:18.691Z,22.57
2018-05-08T11:27:46.962Z,23.21
2018-05-08T11:30:15.301Z,22.35
2018-05-08T11:32:43.566Z,22.65
2018-05-08T11:35:11.862Z,23.38
2018-05-08T11:37:40.895Z,23.32
2018-05-08T11:40:09.167Z,22.30
2018-05-08T11:42:37.520Z,21.91
2018-05-08T11:45:06.546Z,22.06
2018-05-08T11:47:34.808Z,22.40
2018-05-08T11:50:03.932Z,22.48
2018-05-08T11:52:32.093Z,22.66
2018-05-08T11:55:00.443Z,23.07
2018-05-08T11:57:28.699Z,23.47
2018-05-08T11:59:57.745Z,22.92
2018-05-08T12:02:25.980Z,21.75
2018-05-08T12:04:55.028Z,22.33
2018-05-08T12:07:23.905Z,22.18
2018-05-08T12:09:52.971Z,22.63
2018-05-08T12:12:21.259Z,22.00
2018-05-08T12:14:49.505Z,22.64
2018-05-08T12:17:17.788Z,21.91
2018-05-08T12:19:46.097Z,22.43
2018-05-08T12:22:14.346Z,21.43
2018-05-08T12:24:43.759Z,20.80
2018-05-08T12:27:12.779Z,20.38
2018-05-08T12:29:41.801Z,20.70
2018-05-08T12:32:10.059Z,20.38
2018-05-08T12:34:39.079Z,20.92
2018-05-08T12:37:08.083Z,21.30
2018-05-08T12:39:37.091Z,20.72
2018-05-08T12:42:06.104Z,21.32
2018-05-08T12:44:35.106Z,20.78
2018-05-08T12:47:04.121Z,21.22
2018-05-08T12:49:32.542Z,20.35
2018-05-08T12:52:00.815Z,21.29
2018-05-08T12:54:29.111Z,21.34
2018-05-08T12:56:58.103Z,20.99
2018-05-08T12:59:26.353Z,21.94
2018-05-08T13:01:56.185Z,21.62
2018-05-08T13:04:25.201Z,21.53
2018-05-08T13:06:53.480Z,22.23
2018-05-08T13:09:21.756Z,21.50
2018-05-08T13:11:50.789Z,20.21
2018-05-08T13:14:19.896Z,20.62
2018-05-08T13:16:49.008Z,20.16
2018-05-08T13:19:18.072Z,21.08
2018-05-08T13:21:46.404Z,20.96
2018-05-08T13:24:15.444Z,20.17
2018-05-08T13:26:44.433Z,20.93
2018-05-08T13:29:12.671Z,20.57
2018-05-08T13:31:40.943Z,20.30
2018-05-08T13:34:09.180Z,20.79
2018-05-08T13:36:38.956Z,20.41
2018-05-08T13:39:07.335Z,20.95
2018-05-08T13:41:35.578Z,20.12
2018-05-08T13:44:04.714Z,20.17
2018-05-08T13:46:32.971Z,21.00
2018-05-08T13:49:01.198Z,20.10
2018-05-08T13:51:30.272Z,19.47
2018-05-08T13:53:58.503Z,19.74
2018-05-08T13:56:26.763Z,19.31
2018-05-08T13:58:55.777Z,19.51
2018-05-08T14:01:24.027Z,19.79
2018-05-08T14:03:52.267Z,19.25
2018-05-08T14:06:20.528Z,20.51
2018-05-08T14:08:49.532Z,18.64
2018-05-08T14:11:18.580Z,19.87
2018-05-08T14:13:46.931Z,18.58
2018-05-08T14:16:15.939Z,19.30
2018-05-08T14:18:44.359Z,18.88
2018-05-08T14:21:12.624Z,19.86
2018-05-08T14:23:41.633Z,19.45
2018-05-08T14:26:10.673Z,20.82
2018-05-08T14:28:39.140Z,19.28
2018-05-08T14:31:07.409Z,18.78
2018-05-08T14:33:36.423Z,19.05
2018-05-08T14:36:05.447Z,19.15
2018-05-08T14:38:33.727Z,20.06
2018-05-08T14:41:01.973Z,19.90
2018-05-08T14:43:30.243Z,20.24
2018-05-08T14:45:58.471Z,20.27
2018-05-08T14:48:26.726Z,19.74
2018-05-08T14:50:55.064Z,19.85
2018-05-08T14:53:24.221Z,19.42
2018-05-08T14:55:52.498Z,19.69
2018-05-08T14:58:20.752Z,19.76
2018-05-08T15:00:49.787Z,20.03
2018-05-08T15:03:18.035Z,20.18
2018-05-08T15:05:47.847Z,19.08
2018-05-08T15:08:17.526Z,19.33
2018-05-08T15:10:45.755Z,19.22
2018-05-08T15:13:15.515Z,20.02
2018-05-08T15:15:44.603Z,19.21
2018-05-08T15:18:13.939Z,19.22
2018-05-08T15:20:42.723Z,19.04
2018-05-08T15:23:11.746Z,19.59
2018-05-08T15:25:41.482Z,20.20
2018-05-08T15:28:09.737Z,19.53
2018-05-08T15:30:37.978Z,19.89
2018-05-08T15:33:06.250Z,19.43
2018-05-08T15:35:34.507Z,19.86
2018-05-08T15:38:03.645Z,19.49
2018-05-08T15:40:31.937Z,18.89
2018-05-08T15:43:00.931Z,19.25
2018-05-08T15:45:29.168Z,19.20
2018-05-08T15:47:57.429Z,19.19
2018-05-08T15:50:25.679Z,19.70
2018-05-08T15:52:54.698Z,18.39
2018-05-08T15:55:24.462Z,19.80
2018-05-08T15:57:52.714Z,19.38
2018-05-08T16:00:21.710Z,20.13
2018-05-08T16:02:50.842Z,19.58
2018-05-08T16:05:19.103Z,19.38
2018-05-08T16:07:48.120Z,19.84
2018-05-08T16:10:17.219Z,19.43
2018-05-08T16:12:46.326Z,19.06
2018-05-08T16:15:16.147Z,19.18
2018-05-08T16:17:45.546Z,19.70
2018-05-08T16:20:13.778Z,19.21
2018-05-08T16:22:42.047Z,19.61
2018-05-08T16:25:11.878Z,19.08
2018-05-08T16:27:40.882Z,18.78
2018-05-08T16:30:09.948Z,18.98
2018-05-08T16:32:38.922Z,18.86
2018-05-08T16:35:07.154Z,19.15
2018-05-08T16:37:35.409Z,19.62
2018-05-08T16:40:03.647Z,20.21
2018-05-08T16:42:31.877Z,20.15
2018-05-08T16:45:00.118Z,19.86
2018-05-08T16:47:29.136Z,19.94
2018-05-08T16:49:58.147Z,20.79
2018-05-08T16:52:27.168Z,19.70
2018-05-08T16:54:55.403Z,18.10
2018-05-08T16:57:24.431Z,17.37
2018-05-08T16:59:53.459Z,17.44
2018-05-08T17:02:22.483Z,16.46
2018-05-08T17:04:52.168Z,16.90
2018-05-08T17:07:21.119Z,16.48
2018-05-08T17:09:49.392Z,16.95
2018-05-08T17:12:17.840Z,16.37
2018-05-08T17:14:46.936Z,16.36
2018-05-08T17:17:15.183Z,15.97
2018-05-08T17:19:43.421Z,15.43
2018-05-08T17:22:11.693Z,15.78
2018-05-08T17:24:39.931Z,15.60
2018-05-08T17:27:08.938Z,15.79
2018-05-08T17:29:37.227Z,16.35
2018-05-08T17:32:06.227Z,17.42
2018-05-08T17:34:35.265Z,18.90
2018-05-08T17:37:04.260Z,19.11
2018-05-08T17:39:33.277Z,19.10
2018-05-08T17:42:01.547Z,19.51
2018-05-08T17:44:31.177Z,19.89
2018-05-08T17:46:59.414Z,20.24
2018-05-08T17:49:27.675Z,20.28
2018-05-08T17:51:55.909Z,20.82
2018-05-08T17:54:24.242Z,21.54
2018-05-08T17:56:53.238Z,21.32
2018-05-08T17:59:21.514Z,22.02
2018-05-08T18:01:49.772Z,21.96
2018-05-08T18:04:18.229Z,21.64
2018-05-08T18:06:46.402Z,22.22
2018-05-08T18:09:14.799Z,22.74
2018-05-08T18:11:43.019Z,23.31
2018-05-08T18:14:11.271Z,23.69
2018-05-08T18:16:39.531Z,23.96
2018-05-08T18:19:07.779Z,23.45
2018-05-08T18:21:36.027Z,23.41
2018-05-08T18:24:04.314Z,23.76
2018-05-08T18:26:33.334Z,23.92
2018-05-08T18:29:01.600Z,24.15
2018-05-08T18:31:30.614Z,24.35
2018-05-08T18:34:00.250Z,25.03
2018-05-08T18:36:29.246Z,25.36
2018-05-08T18:38:58.631Z,25.97
2018-05-08T18:41:28.396Z,26.28
2018-05-08T18:43:56.746Z,26.00
2018-05-08T18:46:25.731Z,26.44
2018-05-08T18:48:54.075Z,26.29
2018-05-08T18:51:25.859Z,26.87
2018-05-08T18:53:54.284Z,27.26
2018-05-08T18:56:22.626Z,27.32
2018-05-08T18:58:51.736Z,27.26
2018-05-08T19:01:20.782Z,27.48
2018-05-08T19:03:49.133Z,27.67
2018-05-08T19:06:17.277Z,27.64
2018-05-08T19:08:45.539Z,28.23
2018-05-08T19:11:19.243Z,29.08
2018-05-08T19:13:47.514Z,29.01
2018-05-08T19:16:16.527Z,29.41
2018-05-08T19:18:50.422Z,29.47
2018-05-08T19:21:20.193Z,29.72
2018-05-08T19:23:54.103Z,30.14
2018-05-08T19:26:22.356Z,30.28
2018-05-08T19:28:56.192Z,30.51
2018-05-08T19:31:25.209Z,30.72
2018-05-08T19:33:54.219Z,31.20
2018-05-08T19:36:29.042Z,31.39
2018-05-08T19:38:58.816Z,31.89
2018-05-08T19:41:27.054Z,31.89
2018-05-08T19:43:55.303Z,32.00
2018-05-08T19:46:23.575Z,33.08
2018-05-08T19:48:51.841Z,33.01
2018-05-08T19:51:20.851Z,33.29
2018-05-08T19:53:49.092Z,33.71
2018-05-08T19:56:17.371Z,33.84
2018-05-08T19:58:45.611Z,34.47
2018-05-08T20:01:14.627Z,35.00
2018-05-08T20:03:42.879Z,35.43
2018-05-08T20:06:11.123Z,36.16
2018-05-08T20:08:40.212Z,36.98
2018-05-08T20:11:08.387Z,37.35
2018-05-08T20:13:37.464Z,38.22
2018-05-08T20:16:05.711Z,38.72
2018-05-08T20:18:33.947Z,39.17
2018-05-08T20:21:02.278Z,39.36
2018-05-08T20:23:30.467Z,39.65
2018-05-08T20:25:58.728Z,39.67
2018-05-08T20:28:26.955Z,40.55
2018-05-08T20:30:55.212Z,40.70
2018-05-08T20:33:24.205Z,40.56
2018-05-08T20:35:52.463Z,40.69
2018-05-08T20:38:20.716Z,41.10
2018-05-08T20:40:48.993Z,41.45
2018-05-08T20:43:17.999Z,41.80
2018-05-08T20:45:47.031Z,42.12
2018-05-08T20:48:15.258Z,42.34
2018-05-08T20:50:43.518Z,42.37
2018-05-08T20:53:11.746Z,42.58
2018-05-08T20:55:40.806Z,43.08
2018-05-08T20:58:09.894Z,43.16
2018-05-08T21:00:38.144Z,43.39
2018-05-08T21:03:06.446Z,43.54
2018-05-08T21:05:35.488Z,43.58
2018-05-08T21:08:03.734Z,44.20
2018-05-08T21:10:32.015Z,44.25
2018-05-08T21:13:00.244Z,44.09
2018-05-08T21:15:28.511Z,44.66
2018-05-08T21:17:57.529Z,45.19
2018-05-08T21:20:26.532Z,44.85
2018-05-08T21:22:55.541Z,45.43
2018-05-08T21:25:24.564Z,45.69
2018-05-08T21:27:58.440Z,45.97
2018-05-08T21:30:33.930Z,46.00
2018-05-08T21:33:02.075Z,45.95
2018-05-08T21:35:30.497Z,44.97
2018-05-08T21:37:59.495Z,45.67
2018-05-08T21:40:27.806Z,46.83
2018-05-08T21:42:56.815Z,47.45
2018-05-08T21:45:25.811Z,47.53
2018-05-08T21:47:54.928Z,48.17
2018-05-08T21:50:24.021Z,49.13
2018-05-08T21:52:53.039Z,49.17
2018-05-08T21:55:22.152Z,49.39
2018-05-08T21:57:50.431Z,49.98
2018-05-08T22:00:19.447Z,50.03
2018-05-08T22:02:48.547Z,50.11
2018-05-08T22:05:17.675Z,50.31
2018-05-08T22:07:45.918Z,50.86
2018-05-08T22:10:14.146Z,50.36
2018-05-08T22:12:42.470Z,50.12
2018-05-08T22:15:11.418Z,50.21
2018-05-08T22:17:40.435Z,50.11
2018-05-08T22:20:09.606Z,50.73
2018-05-08T22:22:37.820Z,50.95
2018-05-08T22:25:06.055Z,51.82
2018-05-08T22:27:34.312Z,51.49
2018-05-08T22:30:03.322Z,51.83
2018-05-08T22:32:32.418Z,51.81
2018-05-08T22:35:01.451Z,52.01
2018-05-08T22:37:29.712Z,52.02
2018-05-08T22:39:58.710Z,52.38
2018-05-08T22:42:26.986Z,52.44
2018-05-08T22:44:55.303Z,51.97
2018-05-08T22:47:24.318Z,49.80
2018-05-08T22:49:53.319Z,49.74
2018-05-08T22:52:22.336Z,49.09
2018-05-08T22:54:50.642Z,49.10
2018-05-08T22:57:18.886Z,49.87
2018-05-08T22:59:47.131Z,49.74
2018-05-08T23:02:15.380Z,49.70
2018-05-08T23:04:44.395Z,50.65
2018-05-08T23:07:13.413Z,50.15
2018-05-08T23:09:41.652Z,51.01
2018-05-08T23:12:09.915Z,50.41
2018-05-08T23:14:38.155Z,50.41
2018-05-08T23:17:07.155Z,50.51
2018-05-08T23:19:36.171Z,50.09
2018-05-08T23:22:05.174Z,50.37
2018-05-08T23:24:34.195Z,50.18
2018-05-08T23:27:02.431Z,50.61
2018-05-08T23:29:30.686Z,50.66
2018-05-08T23:31:58.919Z,51.21
2018-05-08T23:34:27.170Z,51.35
2018-05-08T23:36:55.407Z,51.55
2018-05-08T23:39:23.660Z,51.99
2018-05-08T23:41:51.910Z,52.27
2018-05-08T23:44:20.934Z,52.72
2018-05-08T23:46:49.182Z,53.01
2018-05-08T23:49:17.434Z,53.10
2018-05-08T23:51:45.666Z,54.02
2018-05-08T23:54:14.760Z,55.05
2018-05-08T23:56:43.679Z,55.08
2018-05-08T23:59:12.690Z,55.31
